createdAt,value
2022-09-26T00:00:21.830Z,10.00
2022-09-26T00:02:24.602Z,10.00
2022-09-26T00:04:32.545Z,10.00
2022-09-26T00:06:35.563Z,10.00
2022-09-26T00:08:39.767Z,10.00
2022-09-26T00:10:42.436Z,10.00
2022-09-26T00:12:45.493Z,10.00
2022-09-26T00:14:48.163Z,10.00
2022-09-26T00:16:51.003Z,10.00
2022-09-26T00:18:54.747Z,10.10
2022-09-26T00:21:03.913Z,10.10
2022-09-26T00:23:06.600Z,10.10
2022-09-26T00:25:10.917Z,10.20
2022-09-26T00:27:13.580Z,10.10
2022-09-26T00:29:16.661Z,10.20
2022-09-26T00:31:20.762Z,10.10
2022-09-26T00:33:24.079Z,10.20
2022-09-26T00:35:26.761Z,10.10
2022-09-26T00:37:29.429Z,10.20
2022-09-26T00:39:32.125Z,10.20
2022-09-26T00:41:36.637Z,10.20
2022-09-26T00:43:40.525Z,10.20
2022-09-26T00:45:43.242Z,10.10
2022-09-26T00:47:46.824Z,10.10
2022-09-26T00:49:49.552Z,10.10
2022-09-26T00:51:55.611Z,10.10
2022-09-26T00:53:58.300Z,10.10
2022-09-26T00:56:02.828Z,10.10
2022-09-26T00:58:08.263Z,10.10
2022-09-26T01:00:12.193Z,10.20
2022-09-26T01:02:15.495Z,10.20
2022-09-26T01:04:18.317Z,10.20
2022-09-26T01:06:21.102Z,10.30
2022-09-26T01:08:27.755Z,10.20
2022-09-26T01:10:30.574Z,10.20
2022-09-26T01:12:33.268Z,10.20
2022-09-26T01:14:37.409Z,10.20
2022-09-26T01:16:40.702Z,10.20
2022-09-26T01:18:43.715Z,10.20
2022-09-26T01:20:50.396Z,10.10
2022-09-26T01:23:30.478Z,10.10
2022-09-26T01:25:40.880Z,10.10
2022-09-26T01:27:48.013Z,10.10
2022-09-26T01:30:08.620Z,10.10
2022-09-26T01:32:31.778Z,10.10
2022-09-26T01:34:36.216Z,10.20
2022-09-26T01:36:46.465Z,10.20
2022-09-26T01:38:54.058Z,10.20
2022-09-26T01:41:05.229Z,10.20
2022-09-26T01:43:12.663Z,10.20
2022-09-26T01:45:18.812Z,10.30
2022-09-26T01:47:23.963Z,10.30
2022-09-26T01:49:28.568Z,10.30
2022-09-26T01:51:33.696Z,10.30
2022-09-26T01:53:38.894Z,10.30
2022-09-26T01:55:42.217Z,10.40
2022-09-26T01:57:48.492Z,10.30
2022-09-26T01:59:53.722Z,10.30
2022-09-26T02:02:00.502Z,10.30
2022-09-26T02:04:05.714Z,10.30
2022-09-26T02:06:10.234Z,10.30
2022-09-26T02:08:15.721Z,10.20
2022-09-26T02:10:20.184Z,10.20
2022-09-26T02:12:24.655Z,10.20
2022-09-26T02:14:30.079Z,10.30
2022-09-26T02:16:35.647Z,10.30
2022-09-26T02:18:41.745Z,10.30
2022-09-26T02:20:46.806Z,10.40
2022-09-26T02:22:49.489Z,10.30
2022-09-26T02:24:52.179Z,10.30
2022-09-26T02:26:54.867Z,10.40
2022-09-26T02:28:57.581Z,10.30
2022-09-26T02:31:01.217Z,10.30
2022-09-26T02:33:03.987Z,10.30
2022-09-26T02:35:34.591Z,10.30
2022-09-26T02:37:38.722Z,10.30
2022-09-26T02:39:41.802Z,10.30
2022-09-26T02:41:49.289Z,10.20
2022-09-26T02:44:06.240Z,10.20
2022-09-26T02:46:20.113Z,10.30
2022-09-26T02:48:29.035Z,10.30
2022-09-26T02:50:40.226Z,10.30
2022-09-26T02:52:47.132Z,10.30
2022-09-26T02:54:54.470Z,10.30
2022-09-26T02:57:09.011Z,10.20
2022-09-26T02:59:15.789Z,10.30
2022-09-26T03:01:20.125Z,10.30
2022-09-26T03:03:24.194Z,10.30
2022-09-26T03:05:27.910Z,10.30
2022-09-26T03:07:33.275Z,10.30
2022-09-26T03:09:36.985Z,10.20
2022-09-26T03:11:39.693Z,10.30
2022-09-26T03:13:42.421Z,10.30
2022-09-26T03:15:46.219Z,10.20
2022-09-26T03:17:51.466Z,10.20
2022-09-26T03:19:55.963Z,10.20
2022-09-26T03:21:58.740Z,10.30
2022-09-26T03:24:02.790Z,10.30
2022-09-26T03:26:09.027Z,10.30
2022-09-26T03:28:13.016Z,10.30
2022-09-26T03:30:16.751Z,10.30
2022-09-26T03:32:19.436Z,10.30
2022-09-26T03:34:22.441Z,10.30
2022-09-26T03:36:25.295Z,10.40
2022-09-26T03:38:27.994Z,10.40
2022-09-26T03:40:32.070Z,10.40
2022-09-26T03:42:34.760Z,10.30
2022-09-26T03:44:37.476Z,10.30
2022-09-26T03:46:40.391Z,10.30
2022-09-26T03:48:43.182Z,10.30
2022-09-26T03:50:46.036Z,10.30
2022-09-26T03:52:48.713Z,10.30
2022-09-26T03:54:51.423Z,10.30
2022-09-26T03:56:55.496Z,10.30
2022-09-26T03:58:58.180Z,10.30
2022-09-26T04:01:04.622Z,10.20
2022-09-26T04:03:07.379Z,10.20
2022-09-26T04:05:10.360Z,10.20
2022-09-26T04:07:13.037Z,10.20
2022-09-26T04:09:17.538Z,10.20
2022-09-26T04:11:21.141Z,10.10
2022-09-26T04:13:50.256Z,10.10
2022-09-26T04:15:54.995Z,10.10
2022-09-26T04:17:57.848Z,10.10
2022-09-26T04:20:00.549Z,10.10
2022-09-26T04:22:03.235Z,10.10
2022-09-26T04:24:06.009Z,10.10
2022-09-26T04:26:09.451Z,10.20
2022-09-26T04:28:12.123Z,10.20
2022-09-26T04:30:16.543Z,10.10
2022-09-26T04:32:19.673Z,10.10
2022-09-26T04:34:27.177Z,10.10
2022-09-26T04:36:30.320Z,10.10
2022-09-26T04:38:34.081Z,10.20
2022-09-26T04:40:41.979Z,10.20
2022-09-26T04:42:45.433Z,10.20
2022-09-26T04:44:48.178Z,10.20
2022-09-26T04:46:52.203Z,10.20
2022-09-26T04:48:55.563Z,10.20
2022-09-26T04:50:58.400Z,10.20
2022-09-26T04:53:01.791Z,10.20
2022-09-26T04:55:04.901Z,10.20
2022-09-26T04:57:07.609Z,10.20
2022-09-26T04:59:10.372Z,10.10
2022-09-26T05:01:14.056Z,10.10
2022-09-26T05:03:18.196Z,10.10
2022-09-26T05:05:21.253Z,10.10
2022-09-26T05:07:23.980Z,10.00
2022-09-26T05:09:26.813Z,10.00
2022-09-26T05:11:29.678Z,10.00
2022-09-26T05:13:32.550Z,9.90
2022-09-26T05:15:38.854Z,10.00
2022-09-26T05:17:44.945Z,9.90
2022-09-26T05:19:48.990Z,10.00
2022-09-26T05:21:52.009Z,10.00
2022-09-26T05:24:12.255Z,10.00
2022-09-26T05:26:20.515Z,10.00
2022-09-26T05:28:23.991Z,10.00
2022-09-26T05:30:32.065Z,10.00
2022-09-26T05:32:35.048Z,10.10
2022-09-26T05:34:37.906Z,10.10
2022-09-26T05:36:42.678Z,10.20
2022-09-26T05:38:45.413Z,10.20
2022-09-26T05:40:59.235Z,10.20
2022-09-26T05:43:02.340Z,10.20
2022-09-26T05:45:06.137Z,10.30
2022-09-26T05:47:09.145Z,10.30
2022-09-26T05:49:14.746Z,10.30
2022-09-26T05:51:19.539Z,10.40
2022-09-26T05:53:25.047Z,10.40
2022-09-26T05:55:28.061Z,10.40
2022-09-26T05:57:30.735Z,10.50
2022-09-26T05:59:33.433Z,10.60
2022-09-26T06:01:36.309Z,10.50
2022-09-26T06:03:39.286Z,10.60
2022-09-26T06:05:42.324Z,10.60
2022-09-26T06:07:45.621Z,10.60
2022-09-26T06:09:50.028Z,10.60
2022-09-26T06:11:52.701Z,10.60
2022-09-26T06:13:55.899Z,10.60
2022-09-26T06:16:03.554Z,10.70
2022-09-26T06:18:06.420Z,10.70
2022-09-26T06:20:10.501Z,10.70
2022-09-26T06:22:13.184Z,10.80
2022-09-26T06:24:16.483Z,10.80
2022-09-26T06:26:21.564Z,10.90
2022-09-26T06:28:24.257Z,10.90
2022-09-26T06:30:27.081Z,11.00
2022-09-26T06:32:29.871Z,11.00
2022-09-26T06:34:32.571Z,11.00
2022-09-26T06:36:35.744Z,11.10
2022-09-26T06:38:38.683Z,11.10
2022-09-26T06:40:41.447Z,11.20
2022-09-26T06:42:47.018Z,11.20
2022-09-26T06:44:49.713Z,11.20
2022-09-26T06:46:52.442Z,11.30
2022-09-26T06:48:55.308Z,11.30
2022-09-26T06:51:00.045Z,11.40
2022-09-26T06:53:05.831Z,11.40
2022-09-26T06:55:15.064Z,11.50
2022-09-26T06:57:17.753Z,11.50
2022-09-26T06:59:23.132Z,11.60
2022-09-26T07:01:26.046Z,11.70
2022-09-26T07:03:29.594Z,11.70
2022-09-26T07:05:32.436Z,11.80
2022-09-26T07:07:41.826Z,11.90
2022-09-26T07:09:44.524Z,12.00
2022-09-26T07:12:12.885Z,12.00
2022-09-26T07:14:10.704Z,12.20
2022-09-26T07:16:14.822Z,12.30
2022-09-26T07:18:17.524Z,12.30
2022-09-26T07:20:20.960Z,12.30
2022-09-26T07:22:23.649Z,12.40
2022-09-26T07:24:27.245Z,12.90
2022-09-26T07:26:29.934Z,13.50
2022-09-26T07:28:32.627Z,14.10
2022-09-26T07:30:35.365Z,14.40
2022-09-26T07:32:39.648Z,14.60
2022-09-26T07:34:42.808Z,14.80
2022-09-26T07:36:45.889Z,15.00
2022-09-26T07:38:49.216Z,14.70
2022-09-26T07:40:54.292Z,14.60
2022-09-26T07:43:18.483Z,14.40
2022-09-26T07:45:42.640Z,13.90
2022-09-26T07:48:15.898Z,13.70
2022-09-26T07:50:17.709Z,13.50
2022-09-26T07:52:22.487Z,13.40
2022-09-26T07:54:25.275Z,13.20
2022-09-26T07:56:27.965Z,13.30
2022-09-26T07:58:30.662Z,13.30
2022-09-26T08:00:33.387Z,13.40
2022-09-26T08:02:36.362Z,13.50
2022-09-26T08:04:40.480Z,13.50
2022-09-26T08:06:43.157Z,13.90
2022-09-26T08:08:45.945Z,14.00
2022-09-26T08:10:48.643Z,14.20
2022-09-26T08:12:51.444Z,13.90
2022-09-26T08:14:54.151Z,13.80
2022-09-26T08:16:56.943Z,13.80
2022-09-26T08:19:01.241Z,13.80
2022-09-26T08:24:20.928Z,13.90
2022-09-26T08:29:39.668Z,14.20
2022-09-26T08:31:42.391Z,14.10
2022-09-26T08:33:45.107Z,14.00
2022-09-26T08:35:48.556Z,13.90
2022-09-26T08:37:51.222Z,13.90
2022-09-26T08:39:55.216Z,13.80
2022-09-26T08:42:04.627Z,13.80
2022-09-26T08:44:14.426Z,13.80
2022-09-26T08:46:43.827Z,13.70
2022-09-26T08:48:54.273Z,13.70
2022-09-26T08:50:59.227Z,13.70
2022-09-26T08:53:02.799Z,13.90
2022-09-26T08:55:12.620Z,13.80
2022-09-26T08:57:18.967Z,13.90
2022-09-26T08:59:26.943Z,13.80
2022-09-26T09:01:30.605Z,13.80
2022-09-26T09:03:35.483Z,13.80
2022-09-26T09:05:41.042Z,13.60
2022-09-26T09:07:43.753Z,13.70
2022-09-26T09:09:46.564Z,13.70
2022-09-26T09:11:58.368Z,13.70
2022-09-26T09:14:07.502Z,13.80
2022-09-26T09:16:20.253Z,13.70
2022-09-26T09:18:27.792Z,13.80
2022-09-26T09:20:43.578Z,13.90
2022-09-26T09:23:08.069Z,13.80
2022-09-26T09:28:39.117Z,13.90
2022-09-26T09:30:42.616Z,14.20
2022-09-26T09:32:48.465Z,14.30
2022-09-26T09:34:53.832Z,14.40
2022-09-26T09:36:58.107Z,14.40
2022-09-26T09:45:49.046Z,15.30
2022-09-26T09:47:51.765Z,15.30
2022-09-26T09:49:54.500Z,15.20
2022-09-26T09:52:04.446Z,15.00
2022-09-26T09:54:15.477Z,15.00
2022-09-26T09:56:22.207Z,14.80
2022-09-26T09:58:36.623Z,14.60
2022-09-26T10:00:42.399Z,14.50
2022-09-26T10:02:52.644Z,14.60
2022-09-26T10:04:59.222Z,14.60
2022-09-26T10:07:03.930Z,14.50
2022-09-26T10:09:35.391Z,14.60
2022-09-26T10:11:42.932Z,14.30
2022-09-26T10:13:45.831Z,14.10
2022-09-26T10:15:54.397Z,14.10
2022-09-26T10:18:23.383Z,14.00
2022-09-26T10:20:36.312Z,13.90
2022-09-26T10:22:44.999Z,13.90
2022-09-26T10:24:48.365Z,13.90
2022-09-26T10:26:51.177Z,13.90
2022-09-26T10:28:56.048Z,13.80
2022-09-26T10:31:03.440Z,13.80
2022-09-26T10:33:07.521Z,13.70
2022-09-26T10:35:19.695Z,13.60
2022-09-26T10:37:23.851Z,13.70
2022-09-26T10:39:46.095Z,13.70
2022-09-26T10:41:49.149Z,13.80
2022-09-26T10:43:53.712Z,13.70
2022-09-26T10:46:00.409Z,13.70
2022-09-26T10:48:03.121Z,13.60
2022-09-26T10:50:11.562Z,13.50
2022-09-26T10:52:18.758Z,13.50
2022-09-26T10:54:23.509Z,13.50
2022-09-26T10:56:27.373Z,13.40
2022-09-26T10:58:32.541Z,13.60
2022-09-26T11:00:40.182Z,13.70
2022-09-26T11:02:46.335Z,13.80
2022-09-26T11:05:06.515Z,13.90
2022-09-26T11:07:12.220Z,13.90
2022-09-26T11:09:20.481Z,14.00
2022-09-26T11:11:23.241Z,14.10
2022-09-26T11:13:26.777Z,14.10
2022-09-26T11:15:29.665Z,14.20
2022-09-26T11:17:45.178Z,14.20
2022-09-26T11:19:54.634Z,14.10
2022-09-26T11:22:03.207Z,14.10
2022-09-26T11:24:16.852Z,14.00
2022-09-26T11:26:22.140Z,14.00
2022-09-26T11:28:25.771Z,13.80
2022-09-26T11:30:28.459Z,13.80
2022-09-26T11:32:32.207Z,13.60
2022-09-26T11:34:35.145Z,13.50
2022-09-26T11:36:54.588Z,13.40
2022-09-26T11:38:57.797Z,13.40
2022-09-26T11:41:07.269Z,13.30
2022-09-26T11:43:19.735Z,13.30
2022-09-26T11:45:24.879Z,13.30
2022-09-26T11:47:56.956Z,13.20
2022-09-26T11:50:09.044Z,13.20
2022-09-26T11:52:20.537Z,13.20
2022-09-26T11:54:32.457Z,13.20
2022-09-26T11:56:51.456Z,13.10
2022-09-26T11:58:59.162Z,13.00
2022-09-26T12:01:05.517Z,13.00
2022-09-26T12:03:36.158Z,13.00
2022-09-26T12:05:45.324Z,12.90
2022-09-26T12:07:50.160Z,13.00
2022-09-26T12:10:00.579Z,12.90
2022-09-26T12:12:09.703Z,12.90
2022-09-26T12:14:17.713Z,12.90
2022-09-26T12:16:22.648Z,13.00
2022-09-26T12:18:29.859Z,13.00
2022-09-26T12:20:36.168Z,13.00
2022-09-26T12:22:41.552Z,13.00
2022-09-26T12:24:48.779Z,13.00
2022-09-26T12:26:53.487Z,13.00
2022-09-26T12:29:08.557Z,13.10
2022-09-26T12:31:17.369Z,13.10
2022-09-26T12:33:34.247Z,13.10
2022-09-26T12:35:43.762Z,13.10
2022-09-26T12:38:07.354Z,13.00
2022-09-26T12:40:29.144Z,12.90
2022-09-26T12:42:42.792Z,12.90
2022-09-26T12:44:53.208Z,12.80
2022-09-26T12:47:14.131Z,12.90
2022-09-26T12:49:30.808Z,12.90
2022-09-26T12:51:40.120Z,12.90
2022-09-26T12:53:55.239Z,12.90
2022-09-26T12:56:02.610Z,12.90
2022-09-26T12:58:13.983Z,12.90
2022-09-26T13:00:21.551Z,13.00
2022-09-26T13:02:38.206Z,13.00
2022-09-26T13:05:04.220Z,13.10
2022-09-26T13:07:19.280Z,13.00
2022-09-26T13:09:28.640Z,13.00
2022-09-26T13:11:37.102Z,13.00
2022-09-26T13:13:54.179Z,12.90
2022-09-26T13:16:19.952Z,12.90
2022-09-26T13:18:26.679Z,12.80
2022-09-26T13:20:32.667Z,12.70
2022-09-26T13:22:37.765Z,12.60
2022-09-26T13:24:44.586Z,12.60
2022-09-26T13:26:49.912Z,12.50
2022-09-26T13:29:15.731Z,12.50
2022-09-26T13:31:21.258Z,12.50
2022-09-26T13:33:26.295Z,12.50
2022-09-26T13:35:30.189Z,12.50
2022-09-26T13:37:38.862Z,12.50
2022-09-26T13:39:42.877Z,12.40
2022-09-26T13:41:48.370Z,12.40
2022-09-26T13:43:55.935Z,12.40
2022-09-26T13:46:02.146Z,12.40
2022-09-26T13:48:08.116Z,12.40
2022-09-26T13:50:19.832Z,12.40
2022-09-26T13:52:28.608Z,12.40
2022-09-26T13:54:37.835Z,12.40
2022-09-26T13:56:49.466Z,12.40
2022-09-26T13:59:03.681Z,12.30
2022-09-26T14:01:24.423Z,12.30
2022-09-26T14:03:44.203Z,12.30
2022-09-26T14:05:49.806Z,12.30
2022-09-26T14:08:10.924Z,12.30
2022-09-26T14:10:21.608Z,12.20
2022-09-26T14:12:35.035Z,12.20
2022-09-26T14:14:44.881Z,12.20
2022-09-26T14:16:47.719Z,12.20
2022-09-26T14:19:04.010Z,12.20
2022-09-26T14:21:19.165Z,12.20
2022-09-26T14:23:41.705Z,12.20
2022-09-26T14:25:57.772Z,12.20
2022-09-26T14:28:17.184Z,12.30
2022-09-26T14:30:29.029Z,12.30
2022-09-26T14:32:36.927Z,12.30
2022-09-26T14:34:43.675Z,12.20
2022-09-26T14:36:46.684Z,12.20
2022-09-26T14:38:50.342Z,12.20
2022-09-26T14:40:54.313Z,12.20
2022-09-26T14:43:00.047Z,12.20
2022-09-26T14:45:03.732Z,12.20
2022-09-26T14:47:08.288Z,12.20
2022-09-26T14:49:20.154Z,12.20
2022-09-26T14:51:26.156Z,12.30
2022-09-26T14:53:33.177Z,12.30
2022-09-26T14:55:35.878Z,12.30
2022-09-26T14:57:38.821Z,12.30
2022-09-26T14:59:43.383Z,12.40
2022-09-26T15:01:46.114Z,12.40
2022-09-26T15:03:54.762Z,12.50
2022-09-26T15:05:57.824Z,12.50
2022-09-26T15:08:02.128Z,12.60
2022-09-26T15:10:09.237Z,12.60
2022-09-26T15:12:14.975Z,12.60
2022-09-26T15:14:22.740Z,12.60
2022-09-26T15:16:28.225Z,12.60
2022-09-26T15:18:35.561Z,12.60
2022-09-26T15:20:41.908Z,12.60
2022-09-26T15:22:44.636Z,12.50
2022-09-26T15:24:48.663Z,12.50
2022-09-26T15:26:51.816Z,12.50
2022-09-26T15:28:56.472Z,12.50
2022-09-26T15:31:20.308Z,12.50
2022-09-26T15:33:23.396Z,12.50
2022-09-26T15:35:27.159Z,12.50
2022-09-26T15:37:30.752Z,12.50
2022-09-26T15:39:36.999Z,12.50
2022-09-26T15:42:03.338Z,12.50
2022-09-26T15:44:09.347Z,12.50
2022-09-26T15:46:21.105Z,12.60
2022-09-26T15:48:28.970Z,12.60
2022-09-26T15:50:35.490Z,12.60
2022-09-26T15:52:38.438Z,12.60
2022-09-26T15:54:41.128Z,12.60
2022-09-26T15:56:46.458Z,12.60
2022-09-26T15:58:50.414Z,12.50
2022-09-26T16:00:53.156Z,12.50
2022-09-26T16:02:55.918Z,12.50
2022-09-26T16:04:58.624Z,12.50
2022-09-26T16:07:01.903Z,12.50
2022-09-26T16:09:09.403Z,12.60
2022-09-26T16:11:13.146Z,12.60
2022-09-26T16:13:25.449Z,12.60
2022-09-26T16:15:29.526Z,12.60
2022-09-26T16:17:34.873Z,12.50
2022-09-26T16:19:37.823Z,12.60
2022-09-26T16:21:40.520Z,12.60
2022-09-26T16:23:45.717Z,12.60
2022-09-26T16:25:53.010Z,12.60
2022-09-26T16:28:01.104Z,12.60
2022-09-26T16:30:07.024Z,12.50
2022-09-26T16:32:10.207Z,12.50
2022-09-26T16:34:21.101Z,12.50
2022-09-26T16:36:24.612Z,12.40
2022-09-26T16:38:28.213Z,12.30
2022-09-26T16:40:31.574Z,12.30
2022-09-26T16:42:34.294Z,12.20
2022-09-26T16:44:38.336Z,12.20
2022-09-26T16:46:42.506Z,12.20
2022-09-26T16:48:54.222Z,12.20
2022-09-26T16:51:14.071Z,12.20
2022-09-26T16:53:16.765Z,12.20
2022-09-26T16:55:19.778Z,12.20
2022-09-26T16:57:23.972Z,12.20
2022-09-26T16:59:28.681Z,12.20
2022-09-26T17:01:49.271Z,12.20
2022-09-26T17:03:53.400Z,12.20
2022-09-26T17:05:56.968Z,12.20
2022-09-26T17:07:59.693Z,12.20
2022-09-26T17:10:02.607Z,12.10
2022-09-26T17:12:07.735Z,12.10
2022-09-26T17:14:12.211Z,12.20
2022-09-26T17:16:14.981Z,12.20
2022-09-26T17:18:19.979Z,12.20
2022-09-26T17:20:24.344Z,12.20
2022-09-26T17:22:27.049Z,12.10
2022-09-26T17:24:30.429Z,12.20
2022-09-26T17:26:34.994Z,12.20
2022-09-26T17:28:38.492Z,12.20
2022-09-26T17:30:41.233Z,12.20
2022-09-26T17:32:46.691Z,12.20
2022-09-26T17:34:49.388Z,12.20
2022-09-26T17:36:53.802Z,12.20
2022-09-26T17:38:59.170Z,12.20
2022-09-26T17:41:01.911Z,12.20
2022-09-26T17:43:05.241Z,12.10
2022-09-26T17:45:08.996Z,12.20
2022-09-26T17:47:11.690Z,12.10
2022-09-26T17:49:16.773Z,12.10
2022-09-26T17:51:21.633Z,12.10
2022-09-26T17:53:26.776Z,12.10
2022-09-26T17:55:29.719Z,12.00
2022-09-26T17:57:33.954Z,12.00
2022-09-26T17:59:42.087Z,12.00
2022-09-26T18:01:54.004Z,12.00
2022-09-26T18:03:59.728Z,12.00
2022-09-26T18:06:03.004Z,12.00
2022-09-26T18:08:07.919Z,11.90
2022-09-26T18:10:16.951Z,12.00
2022-09-26T18:12:21.471Z,12.00
2022-09-26T18:14:24.157Z,12.00
2022-09-26T18:16:26.949Z,11.90
2022-09-26T18:18:30.980Z,11.90
2022-09-26T18:20:37.456Z,11.90
2022-09-26T18:22:40.418Z,11.90
2022-09-26T18:24:44.568Z,11.80
2022-09-26T18:26:50.601Z,11.80
2022-09-26T18:28:54.655Z,11.70
2022-09-26T18:30:59.195Z,11.60
2022-09-26T18:33:01.944Z,11.60
2022-09-26T18:35:04.821Z,11.50
2022-09-26T18:37:07.530Z,11.50
2022-09-26T18:39:11.303Z,11.40
2022-09-26T18:41:15.718Z,11.40
2022-09-26T18:43:21.387Z,11.40
2022-09-26T18:45:26.641Z,11.30
2022-09-26T18:47:29.359Z,11.30
2022-09-26T18:49:33.447Z,11.20
2022-09-26T18:51:36.189Z,11.20
2022-09-26T18:53:40.237Z,11.20
2022-09-26T18:56:00.668Z,11.10
2022-09-26T18:58:21.068Z,11.10
2022-09-26T19:00:26.665Z,11.00
2022-09-26T19:02:32.478Z,11.00
2022-09-26T19:04:35.250Z,10.90
2022-09-26T19:06:38.675Z,10.90
2022-09-26T19:08:42.857Z,10.90
2022-09-26T19:10:45.565Z,10.90
2022-09-26T19:12:48.619Z,10.90
2022-09-26T19:14:51.449Z,10.90
2022-09-26T19:16:55.801Z,10.90
2022-09-26T19:18:58.608Z,10.90
2022-09-26T19:21:01.490Z,10.80
2022-09-26T19:23:04.208Z,10.80
2022-09-26T19:25:07.601Z,10.80
2022-09-26T19:27:13.538Z,10.80
2022-09-26T19:29:17.699Z,10.80
2022-09-26T19:31:20.444Z,10.80
2022-09-26T19:33:24.502Z,10.80
2022-09-26T19:35:30.133Z,10.80
2022-09-26T19:37:32.889Z,10.70
2022-09-26T19:39:40.059Z,10.70
2022-09-26T19:41:42.808Z,10.70
2022-09-26T19:43:45.506Z,10.70
2022-09-26T19:45:51.286Z,10.80
2022-09-26T19:47:55.010Z,10.80
2022-09-26T19:49:59.037Z,10.70
2022-09-26T19:52:02.494Z,10.80
2022-09-26T19:54:06.367Z,10.80
2022-09-26T19:56:09.713Z,10.80
2022-09-26T19:58:14.008Z,10.80
2022-09-26T20:00:19.068Z,10.80
2022-09-26T20:02:24.081Z,10.70
2022-09-26T20:04:26.868Z,10.70
2022-09-26T20:06:30.932Z,10.70
2022-09-26T20:08:34.431Z,10.70
2022-09-26T20:10:37.123Z,10.70
2022-09-26T20:12:39.839Z,10.70
2022-09-26T20:14:42.523Z,10.70
2022-09-26T20:16:45.380Z,10.80
2022-09-26T20:18:51.019Z,10.70
2022-09-26T20:20:55.071Z,10.70
2022-09-26T20:22:59.142Z,10.70
2022-09-26T20:25:01.857Z,10.70
2022-09-26T20:27:06.951Z,10.70
2022-09-26T20:29:12.991Z,10.70
2022-09-26T20:31:19.589Z,10.70
2022-09-26T20:33:23.736Z,10.70
2022-09-26T20:35:26.712Z,10.70
2022-09-26T20:37:31.167Z,10.70
2022-09-26T20:39:35.335Z,10.70
2022-09-26T20:41:39.195Z,10.60
2022-09-26T20:43:42.339Z,10.70
2022-09-26T20:45:45.111Z,10.70
2022-09-26T20:47:47.872Z,10.70
2022-09-26T20:49:52.740Z,10.70
2022-09-26T20:51:55.450Z,10.70
2022-09-26T20:54:00.666Z,10.70
2022-09-26T20:56:04.971Z,10.70
2022-09-26T20:58:08.168Z,10.70
2022-09-26T21:00:15.376Z,10.70
2022-09-26T21:02:27.173Z,10.70
2022-09-26T21:04:31.323Z,10.70
2022-09-26T21:06:34.920Z,10.70
2022-09-26T21:08:37.599Z,10.70
2022-09-26T21:10:40.468Z,10.70
2022-09-26T21:12:44.527Z,10.70
2022-09-26T21:14:47.224Z,10.70
2022-09-26T21:16:52.496Z,10.70
2022-09-26T21:18:55.244Z,10.70
2022-09-26T21:21:00.356Z,10.70
2022-09-26T21:23:03.072Z,10.60
2022-09-26T21:25:06.579Z,10.60
2022-09-26T21:27:11.215Z,10.60
2022-09-26T21:29:17.119Z,10.60
2022-09-26T21:31:22.200Z,10.60
2022-09-26T21:33:24.960Z,10.60
2022-09-26T21:35:29.921Z,10.60
2022-09-26T21:37:32.633Z,10.60
2022-09-26T21:39:35.361Z,10.60
2022-09-26T21:41:38.087Z,10.60
2022-09-26T21:43:42.355Z,10.60
2022-09-26T21:45:46.641Z,10.60
2022-09-26T21:47:49.654Z,10.60
2022-09-26T21:49:53.442Z,10.50
2022-09-26T21:51:57.542Z,10.50
2022-09-26T21:54:02.030Z,10.50
2022-09-26T21:56:08.037Z,10.50
2022-09-26T21:58:12.957Z,10.50
2022-09-26T22:00:15.954Z,10.50
2022-09-26T22:02:20.495Z,10.50
2022-09-26T22:04:23.840Z,10.50
2022-09-26T22:06:27.079Z,10.50
2022-09-26T22:08:29.801Z,10.50
2022-09-26T22:10:32.493Z,10.50
2022-09-26T22:12:35.464Z,10.50
2022-09-26T22:14:38.156Z,10.50
2022-09-26T22:16:40.961Z,10.50
2022-09-26T22:18:45.052Z,10.50
2022-09-26T22:20:47.765Z,10.50
2022-09-26T22:22:50.576Z,10.40
2022-09-26T22:24:53.876Z,10.50
2022-09-26T22:26:56.585Z,10.50
2022-09-26T22:28:59.270Z,10.50
2022-09-26T22:31:02.201Z,10.40
2022-09-26T22:33:04.981Z,10.40
2022-09-26T22:35:09.253Z,10.40
2022-09-26T22:37:11.991Z,10.40
2022-09-26T22:39:14.685Z,10.40
2022-09-26T22:41:17.559Z,10.40
2022-09-26T22:43:21.060Z,10.40
2022-09-26T22:45:23.847Z,10.40
2022-09-26T22:47:26.886Z,10.40
2022-09-26T22:49:29.924Z,10.40
2022-09-26T22:51:34.516Z,10.40
2022-09-26T22:53:38.186Z,10.40
2022-09-26T22:55:40.879Z,10.40
2022-09-26T22:57:43.609Z,10.40
2022-09-26T22:59:46.299Z,10.40
2022-09-26T23:01:51.652Z,10.30
2022-09-26T23:03:54.712Z,10.40
2022-09-26T23:05:57.723Z,10.40
2022-09-26T23:08:02.248Z,10.40
2022-09-26T23:10:05.156Z,10.40
2022-09-26T23:12:07.925Z,10.40
2022-09-26T23:14:10.756Z,10.40
2022-09-26T23:16:14.286Z,10.40
2022-09-26T23:18:17.052Z,10.40
2022-09-26T23:20:19.740Z,10.30
2022-09-26T23:22:22.461Z,10.40
2022-09-26T23:24:26.476Z,10.40
2022-09-26T23:26:29.985Z,10.40
2022-09-26T23:28:33.737Z,10.40
2022-09-26T23:30:36.508Z,10.40
2022-09-26T23:32:39.240Z,10.40
2022-09-26T23:34:41.934Z,10.40
2022-09-26T23:36:44.881Z,10.40
2022-09-26T23:38:47.607Z,10.40
2022-09-26T23:40:51.854Z,10.40
2022-09-26T23:42:54.619Z,10.40
2022-09-26T23:44:57.597Z,10.40
2022-09-26T23:47:02.570Z,10.40
2022-09-26T23:49:05.250Z,10.40
2022-09-26T23:51:08.062Z,10.40
2022-09-26T23:53:10.799Z,10.40
2022-09-26T23:55:13.944Z,10.40
2022-09-26T23:57:17.978Z,10.40
2022-09-26T23:59:20.668Z,10.40
